Alice Town, Bahamas

10:36 PM EDT on September 14, 2014 (GMT -0400)
IBIMINIA2 | Change Station
CLOSE
Current Station
Personal Weather Station
Location: Alice Town, BIMINI
Elevation: 0 ft
Nearby Weather Stations

Elev 0 ft 25.73 °N, 79.30 °W | Updated 7 minutes ago

Mostly Cloudy
Mostly Cloudy
81.8 °F
Feels Like 90 °F
N
1.0
Wind Variable Wind from ESE

Today
High -- | Low -- °F
--% Chance of Precip.
Yesterday
High -- | Low -- °F
Precip. -- in
7:02 AM 7:22 PM
Waning Gibbous, 60% visible
Pressure 30.13 in
Visibility 10.0 miles
Clouds Few 2800 ft
Mostly Cloudy 16000 ft
Mostly Cloudy 25000 ft
Heat Index 90 °F
Dew Point 77 °F
Humidity 85%
Rainfall 0.52 in
Snow Depth Not available.
UV 0 out of 12
Pollen Not available.
Air Quality Not available.
Flu Activity Not available.
METAR KFLL 150153Z 07006KT 10SM FEW028 BKN160 BKN250 29/24 A3013 RMK AO2 SLP203 T02890239

More Conditions Fewer Conditions

Pressure 30.13 in
Visibility 10.0 miles
Clouds Few 2800 ft
Mostly Cloudy 16000 ft
Mostly Cloudy 25000 ft
Heat Index 90 °F
Dew Point 77 °F
Humidity 85%
Rainfall 0.52 in
Snow Depth Not available.
UV 0 out of 12
Pollen Not available.
Air Quality Not available.
Flu Activity Not available.
METAR KFLL 150153Z 07006KT 10SM FEW028 BKN160 BKN250 29/24 A3013 RMK AO2 SLP203 T02890239

More Conditions Fewer Conditions

10-Day Weather Forecast

Almanac

Astronomy

Sep. 14, 2014 Rise Set
Actual Time 7:02 AM EDT 7:22 PM EDT
Civil Twilight 6:39 AM EDT 7:45 PM EDT
Nautical Twilight 6:12 AM EDT 8:12 PM EDT
Astronomical Twilight 5:45 AM EDT 8:39 PM EDT
Moon 11:47 PM EDT (9/14) 12:34 PM EDT (9/14)
Length of Visible Light 13h 05m
Length of Day
12h 19m
Tomorrow will be 1m 29s shorter.
Waning Gibbous, 60% of the Moon is Illuminated
Today
Waning Gibbous
Sep 15
Last Quarter
Sep 24
New
Oct 1
First Quarter
Oct 8
Full

Today's Extremes

Country Highs Country Lows

Community

WunderPhotos

Upload Photos

1,753,381 photos uploaded!

Nearby

Snow Depth

Not available.

Earthquake Activity

City Distance Mag. Time & Date
No recent earthquake activity has been reported nearby.
Minimum magnitude displayed is 2.5.

Coastal Water Temperatures

Place Temperature
No Stations Reporting

Nearby Weather Stations